RDOO2: Fourche Maline, Red Oak

Data processed at Fri May 26 2017 22:32


All information presented herein is the property of the government of the United States of America and may be revised or deleted at any time without prior notice.
Dissemination of this information without the expressed written consent of the Public Affairs Office, Tulsa District U.S. Army Corps of Engineers is strictly prohibited.
These data are gathered electronically and, as presented, have not undergone any form of quality control. These data are not guaranteed to be valid or correct.
Go to home page.
Go to station list.
Go to home page.

Downstream station:


Previous Day
Next Day
Current Day
    
SHEF ID:       RDOO2     Fourche Maline near Red Oak, OK
STATION TYPE:  

               PRECIP     STAGE  STAGE(2)  RIV-FLOW  BAT-LOAD
                   in        ft        ft       cfs      volt
              Ccp-Rev   Ccp-Rev   Ccp-Rev   Ccp-Rev   Ccp-Rev
(US/Central)
05/26 00:00      0.00      3.85      3.89       150     12.89
05/26 01:00      0.00      3.80      3.84       138     12.89
05/26 02:00      0.00      3.75      3.81       125     12.89
05/26 03:00      0.00      3.72      3.77       118     12.83
05/26 04:00      0.00      3.69      3.74       111     12.83
05/26 05:00      0.00      3.66      3.70       105     12.83
05/26 06:00      0.00      3.64      3.69       101     12.77
05/26 07:00      0.00      3.62      3.67        97     12.77
05/26 08:00      0.00      3.60      3.65        93     12.77
05/26 09:00      0.00      3.58      3.63        89     12.83
05/26 10:00      0.00      3.57      3.61        87     13.07
05/26 11:00      0.00      3.55      3.60        84     13.30
05/26 12:00      0.00      3.54      3.59        82     13.53
05/26 13:00      0.00      3.52      3.58        79     13.65
05/26 14:00      0.00      3.51      3.56        77     13.30
05/26 15:00      0.00      3.51      3.55        77     13.65
05/26 16:00      0.00      3.49      3.54        74     13.24
05/26 17:00      0.00      3.48      3.53        73     13.24
05/26 18:00      0.00      3.47      3.52        71     13.24
05/26 19:00      0.00      3.47      3.50        71     13.18
05/26 20:00      0.00      3.46      3.50        70     13.12
05/26 21:00      0.00      3.45      3.49        68     13.00
05/26 22:00      ----      ----      ----      ----      ----
05/26 23:00      ----      ----      ----      ----      ----